createdAt,value
2019-02-10T00:01:50.674Z,1.32
2019-02-10T00:04:25.828Z,1.87
2019-02-10T00:06:57.675Z,2.25
2019-02-10T00:09:30.150Z,2.30
2019-02-10T00:12:03.008Z,2.90
2019-02-10T00:14:36.062Z,1.95
2019-02-10T00:17:08.307Z,2.33
2019-02-10T00:19:40.870Z,2.05
2019-02-10T00:22:16.602Z,1.65
2019-02-10T00:24:48.536Z,1.77
2019-02-10T00:27:21.655Z,2.65
2019-02-10T00:29:53.461Z,2.00
2019-02-10T00:32:25.675Z,1.85
2019-02-10T00:34:57.609Z,2.25
2019-02-10T00:37:29.596Z,2.17
2019-02-10T00:40:01.133Z,2.50
2019-02-10T00:42:32.749Z,2.70
2019-02-10T00:45:04.458Z,2.40
2019-02-10T00:47:36.063Z,4.53
2019-02-10T00:50:08.204Z,2.30
2019-02-10T00:52:39.565Z,2.77
2019-02-10T00:55:11.334Z,2.40
2019-02-10T00:57:49.383Z,2.60
2019-02-10T01:00:23.147Z,3.83
2019-02-10T01:02:54.831Z,2.90
2019-02-10T01:05:26.379Z,2.40
2019-02-10T01:07:59.631Z,2.15
2019-02-10T01:10:30.979Z,2.57
2019-02-10T01:13:04.323Z,2.62
2019-02-10T01:15:37.507Z,2.58
2019-02-10T01:18:08.941Z,2.45
2019-02-10T01:20:40.299Z,3.02
2019-02-10T01:23:11.418Z,2.92
2019-02-10T01:25:43.097Z,2.72
2019-02-10T01:28:15.598Z,2.42
2019-02-10T01:30:47.208Z,2.37
2019-02-10T01:33:19.507Z,3.12
2019-02-10T01:35:51.624Z,2.00
2019-02-10T01:38:22.807Z,2.60
2019-02-10T01:40:54.293Z,2.00
2019-02-10T01:43:25.557Z,2.20
2019-02-10T01:45:58.110Z,2.00
2019-02-10T01:48:29.659Z,2.83
2019-02-10T01:51:01.402Z,2.87
2019-02-10T01:53:33.694Z,2.33
2019-02-10T01:56:05.654Z,2.47
2019-02-10T01:58:37.546Z,2.47
2019-02-10T02:01:11.522Z,2.98
2019-02-10T02:03:43.205Z,2.15
2019-02-10T02:06:14.999Z,1.32
2019-02-10T02:08:47.141Z,2.80
2019-02-10T02:11:19.509Z,2.58
2019-02-10T02:13:51.938Z,2.17
2019-02-10T02:16:23.257Z,2.15
2019-02-10T02:18:55.730Z,2.27
2019-02-10T02:21:28.439Z,2.80
2019-02-10T02:23:59.806Z,3.75
2019-02-10T02:26:31.179Z,2.40
2019-02-10T02:29:03.579Z,3.00
2019-02-10T02:31:36.653Z,2.27
2019-02-10T02:34:08.660Z,2.35
2019-02-10T02:36:44.543Z,3.47
2019-02-10T02:39:16.099Z,2.17
2019-02-10T02:41:47.576Z,3.62
2019-02-10T02:44:19.567Z,3.70
2019-02-10T02:46:51.582Z,2.30
2019-02-10T02:49:22.707Z,2.45
2019-02-10T02:51:54.558Z,2.35
2019-02-10T02:54:29.227Z,2.12
2019-02-10T02:57:00.668Z,2.70
2019-02-10T02:59:32.245Z,2.83
2019-02-10T03:02:04.607Z,1.72
2019-02-10T03:04:35.800Z,2.60
2019-02-10T03:07:07.214Z,3.22
2019-02-10T03:09:39.164Z,1.98
2019-02-10T03:12:12.043Z,2.17
2019-02-10T03:14:43.253Z,3.33
2019-02-10T03:17:14.865Z,2.70
2019-02-10T03:19:46.371Z,2.15
2019-02-10T03:22:17.711Z,3.12
2019-02-10T03:24:49.207Z,2.33
2019-02-10T03:27:21.165Z,3.27
2019-02-10T03:29:52.595Z,3.17
2019-02-10T03:32:24.679Z,2.30
2019-02-10T03:34:56.063Z,3.20
2019-02-10T03:37:27.704Z,3.72
2019-02-10T03:39:59.449Z,3.50
2019-02-10T03:42:31.209Z,2.80
2019-02-10T03:45:02.613Z,3.12
2019-02-10T03:47:36.465Z,2.45
2019-02-10T03:50:07.974Z,3.37
2019-02-10T03:52:39.485Z,3.33
2019-02-10T03:55:10.846Z,3.17
2019-02-10T03:57:42.381Z,3.22
2019-02-10T04:00:14.571Z,3.20
2019-02-10T04:02:46.281Z,3.55
2019-02-10T04:05:17.852Z,2.85
2019-02-10T04:07:49.378Z,3.12
2019-02-10T04:10:21.334Z,3.13
2019-02-10T04:12:53.083Z,3.20
2019-02-10T04:15:24.190Z,2.65
2019-02-10T04:17:55.299Z,2.67
2019-02-10T04:20:26.885Z,3.08
2019-02-10T04:22:58.997Z,2.83
2019-02-10T04:25:30.175Z,3.70
2019-02-10T04:28:01.623Z,2.30
2019-02-10T04:30:33.842Z,4.00
2019-02-10T04:33:05.370Z,3.12
2019-02-10T04:35:37.273Z,4.20
2019-02-10T04:38:08.720Z,2.12
2019-02-10T04:40:41.076Z,2.52
2019-02-10T04:43:12.175Z,2.95
2019-02-10T04:45:43.599Z,3.47
2019-02-10T04:48:15.663Z,2.70
2019-02-10T04:50:47.071Z,3.50
2019-02-10T04:53:21.505Z,3.35
2019-02-10T04:56:21.265Z,4.40
2019-02-10T04:58:53.009Z,3.60
2019-02-10T05:01:25.290Z,3.83
2019-02-10T05:03:57.110Z,3.03
2019-02-10T05:06:28.573Z,2.95
2019-02-10T05:09:00.789Z,4.20
2019-02-10T05:11:33.619Z,3.58
2019-02-10T05:14:05.383Z,5.73
2019-02-10T05:16:36.766Z,3.12
2019-02-10T05:19:08.392Z,2.98
2019-02-10T05:21:39.847Z,3.25
2019-02-10T05:24:12.154Z,2.92
2019-02-10T05:26:43.630Z,2.30
2019-02-10T05:29:15.003Z,2.58
2019-02-10T05:31:46.085Z,2.50
2019-02-10T05:34:17.662Z,3.65
2019-02-10T05:36:48.769Z,2.62
2019-02-10T05:39:20.486Z,3.42
2019-02-10T05:41:52.231Z,2.47
2019-02-10T05:44:23.630Z,1.92
2019-02-10T05:46:58.215Z,2.37
2019-02-10T05:49:29.685Z,2.27
2019-02-10T05:52:01.138Z,3.12
2019-02-10T05:54:33.154Z,3.17
2019-02-10T05:57:04.707Z,2.42
2019-02-10T05:59:36.042Z,2.17
2019-02-10T06:02:25.146Z,3.45
2019-02-10T06:04:57.908Z,3.17
2019-02-10T06:07:30.890Z,2.60
2019-02-10T06:10:02.031Z,1.95
2019-02-10T06:12:33.550Z,3.00
2019-02-10T06:15:09.135Z,3.25
2019-02-10T06:17:40.414Z,3.17
2019-02-10T06:20:11.578Z,2.12
2019-02-10T06:22:43.104Z,3.15
2019-02-10T06:25:17.157Z,2.12
2019-02-10T06:27:48.343Z,3.22
2019-02-10T06:30:19.913Z,3.17
2019-02-10T06:32:51.196Z,1.95
2019-02-10T06:35:22.761Z,3.22
2019-02-10T06:37:54.248Z,4.17
2019-02-10T06:40:25.356Z,3.00
2019-02-10T06:42:57.560Z,3.30
2019-02-10T06:45:33.831Z,3.80
2019-02-10T06:48:04.931Z,3.45
2019-02-10T06:50:36.625Z,3.72
2019-02-10T06:53:08.350Z,2.95
2019-02-10T06:55:40.483Z,3.27
2019-02-10T06:58:11.592Z,3.37
2019-02-10T07:00:49.779Z,3.67
2019-02-10T07:03:43.593Z,3.52
2019-02-10T07:06:15.522Z,3.80
2019-02-10T07:08:46.992Z,2.77
2019-02-10T07:11:18.724Z,3.30
2019-02-10T07:13:53.350Z,3.22
2019-02-10T07:16:57.728Z,3.17
2019-02-10T07:20:10.960Z,3.27
2019-02-10T07:23:20.990Z,2.70
2019-02-10T07:25:57.776Z,2.80
2019-02-10T07:29:15.460Z,3.05
2019-02-10T07:31:59.695Z,2.60
2019-02-10T07:35:29.841Z,3.05
2019-02-10T07:38:15.958Z,3.72
2019-02-10T07:41:15.595Z,2.58
2019-02-10T07:44:19.840Z,2.90
2019-02-10T07:47:38.858Z,1.30
2019-02-10T07:50:42.203Z,2.90
2019-02-10T07:53:48.778Z,3.25
2019-02-10T07:57:10.588Z,3.17
2019-02-10T08:00:18.991Z,3.30
2019-02-10T08:03:30.658Z,3.30
2019-02-10T08:06:09.684Z,3.55
2019-02-10T08:09:14.267Z,2.67
2019-02-10T08:12:14.430Z,2.85
2019-02-10T08:15:26.384Z,3.00
2019-02-10T08:18:26.546Z,2.72
2019-02-10T08:21:30.131Z,3.33
2019-02-10T08:24:53.301Z,3.30
2019-02-10T08:28:01.469Z,3.37
2019-02-10T08:30:54.937Z,3.50
2019-02-10T08:33:52.944Z,3.20
2019-02-10T08:37:18.857Z,3.80
2019-02-10T08:40:12.453Z,3.20
2019-02-10T08:43:06.115Z,3.22
2019-02-10T08:45:50.761Z,3.20
2019-02-10T08:48:54.674Z,3.90
2019-02-10T08:51:57.686Z,3.20
2019-02-10T08:54:29.798Z,3.25
2019-02-10T08:57:01.374Z,3.72
2019-02-10T08:59:33.767Z,3.50
2019-02-10T09:02:06.096Z,3.37
2019-02-10T09:04:41.010Z,3.42
2019-02-10T09:07:15.463Z,3.50
2019-02-10T09:09:48.810Z,3.40
2019-02-10T09:12:21.742Z,3.35
2019-02-10T09:14:54.721Z,3.50
2019-02-10T09:17:27.236Z,3.52
2019-02-10T09:20:01.044Z,3.12
2019-02-10T09:22:48.667Z,2.75
2019-02-10T09:25:20.574Z,3.50
2019-02-10T09:27:52.128Z,3.52
2019-02-10T09:30:23.814Z,3.30
2019-02-10T09:32:59.002Z,3.10
2019-02-10T09:35:32.251Z,3.15
2019-02-10T09:38:04.114Z,3.25
2019-02-10T09:40:36.878Z,3.35
2019-02-10T09:43:08.753Z,3.58
2019-02-10T09:48:25.859Z,3.52
2019-02-10T09:50:57.581Z,3.22
2019-02-10T09:53:29.424Z,3.00
2019-02-10T09:56:03.995Z,3.45
2019-02-10T09:58:55.216Z,2.98
2019-02-10T10:01:58.235Z,2.40
2019-02-10T10:04:29.480Z,2.33
2019-02-10T10:07:02.217Z,2.60
2019-02-10T10:09:33.901Z,2.55
2019-02-10T10:12:05.221Z,2.60
2019-02-10T10:14:36.858Z,2.58
2019-02-10T10:17:08.832Z,2.30
2019-02-10T10:19:40.991Z,2.30
2019-02-10T10:22:17.355Z,2.27
2019-02-10T10:24:50.758Z,2.40
2019-02-10T10:27:23.294Z,2.17
2019-02-10T10:29:55.817Z,3.00
2019-02-10T10:32:28.568Z,2.35
2019-02-10T10:35:01.314Z,2.65
2019-02-10T10:37:36.854Z,2.90
2019-02-10T10:40:11.173Z,2.58
2019-02-10T10:42:51.403Z,2.67
2019-02-10T10:45:23.855Z,2.60
2019-02-10T10:47:56.418Z,2.20
2019-02-10T10:51:07.513Z,2.83
2019-02-10T10:53:39.908Z,2.80
2019-02-10T10:56:11.635Z,2.65
2019-02-10T10:58:45.132Z,2.80
2019-02-10T11:01:25.235Z,2.40
2019-02-10T11:03:52.013Z,2.58
2019-02-10T11:06:26.480Z,2.50
2019-02-10T11:08:58.372Z,3.92
2019-02-10T11:11:51.969Z,3.10
2019-02-10T11:14:24.014Z,3.12
2019-02-10T11:16:57.582Z,2.80
2019-02-10T11:19:30.599Z,2.33
2019-02-10T11:22:02.550Z,2.90
2019-02-10T11:24:36.654Z,2.90
2019-02-10T11:27:09.806Z,2.60
2019-02-10T11:29:43.040Z,2.50
2019-02-10T11:32:17.605Z,3.25
2019-02-10T11:34:51.807Z,2.80
2019-02-10T11:37:26.839Z,3.60
2019-02-10T11:39:57.218Z,3.10
2019-02-10T11:42:31.121Z,2.85
2019-02-10T11:45:02.711Z,2.95
2019-02-10T11:47:35.806Z,2.98
2019-02-10T11:50:09.083Z,3.35
2019-02-10T11:52:42.646Z,3.00
2019-02-10T11:55:34.704Z,3.27
2019-02-10T11:58:32.007Z,3.20
2019-02-10T12:01:25.595Z,2.75
2019-02-10T12:03:57.910Z,2.92
2019-02-10T12:06:35.638Z,2.90
2019-02-10T12:09:13.881Z,3.30
2019-02-10T12:11:46.401Z,3.00
2019-02-10T12:14:19.493Z,3.08
2019-02-10T12:16:53.557Z,4.58
2019-02-10T12:19:25.456Z,3.17
2019-02-10T12:21:57.735Z,2.83
2019-02-10T12:24:30.799Z,2.98
2019-02-10T12:27:05.696Z,3.30
2019-02-10T12:29:38.598Z,3.30
2019-02-10T12:32:13.966Z,3.30
2019-02-10T12:34:46.742Z,3.05
2019-02-10T12:37:20.701Z,4.12
2019-02-10T12:39:59.903Z,4.08
2019-02-10T12:42:30.860Z,5.27
2019-02-10T12:45:03.307Z,3.00
2019-02-10T12:47:38.768Z,3.83
2019-02-10T12:50:13.233Z,3.37
2019-02-10T12:52:45.180Z,2.87
2019-02-10T12:55:17.303Z,3.55
2019-02-10T12:58:11.338Z,3.15
2019-02-10T13:04:14.545Z,3.42
2019-02-10T13:10:38.662Z,3.80
2019-02-10T13:13:19.098Z,3.80
2019-02-10T13:15:49.020Z,3.40
2019-02-10T13:18:21.367Z,3.22
2019-02-10T13:20:55.934Z,3.72
2019-02-10T13:23:29.714Z,4.92
2019-02-10T13:26:05.015Z,2.80
2019-02-10T13:28:59.060Z,3.00
2019-02-10T13:31:32.021Z,3.62
2019-02-10T13:34:08.404Z,3.35
2019-02-10T13:36:41.552Z,3.80
2019-02-10T13:39:15.103Z,3.37
2019-02-10T13:41:44.783Z,3.45
2019-02-10T13:44:21.777Z,3.70
2019-02-10T13:46:54.368Z,7.17
2019-02-10T13:49:31.805Z,3.77
2019-02-10T13:52:31.211Z,3.25
2019-02-10T13:55:06.343Z,3.75
2019-02-10T13:58:01.303Z,3.30
2019-02-10T14:00:36.703Z,3.85
2019-02-10T14:03:12.835Z,3.60
2019-02-10T14:05:48.757Z,3.30
2019-02-10T14:08:32.699Z,3.55
2019-02-10T14:11:07.634Z,3.57
2019-02-10T14:13:41.240Z,4.30
2019-02-10T14:16:18.013Z,4.12
2019-02-10T14:18:52.123Z,4.10
2019-02-10T14:21:25.117Z,3.95
2019-02-10T14:24:01.427Z,5.87
2019-02-10T14:26:37.914Z,3.80
2019-02-10T14:29:10.019Z,4.03
2019-02-10T14:31:56.847Z,3.77
2019-02-10T14:34:31.145Z,3.50
2019-02-10T14:37:04.289Z,2.90
2019-02-10T14:39:37.535Z,5.58
2019-02-10T14:42:14.975Z,2.80
2019-02-10T14:44:48.686Z,3.25
2019-02-10T14:47:24.201Z,2.00
2019-02-10T14:49:58.001Z,3.70
2019-02-10T14:52:33.064Z,4.10
2019-02-10T14:55:23.029Z,4.80
2019-02-10T14:57:55.979Z,2.70
2019-02-10T15:01:08.812Z,4.20
2019-02-10T15:03:44.171Z,4.58
2019-02-10T15:06:18.008Z,4.90
2019-02-10T15:08:58.889Z,4.40
2019-02-10T15:11:33.638Z,5.05
2019-02-10T15:14:08.571Z,4.85
2019-02-10T15:16:46.753Z,6.35
2019-02-10T15:19:28.081Z,4.12
2019-02-10T15:22:01.873Z,4.70
2019-02-10T15:24:57.049Z,3.37
2019-02-10T15:27:31.060Z,5.00
2019-02-10T15:30:07.126Z,4.60
2019-02-10T15:33:43.387Z,5.30
2019-02-10T15:36:17.001Z,4.10
2019-02-10T15:38:51.328Z,3.33
2019-02-10T15:41:23.785Z,4.62
2019-02-10T15:43:59.240Z,5.53
2019-02-10T15:46:32.457Z,5.00
2019-02-10T15:49:04.925Z,2.95
2019-02-10T15:51:41.012Z,7.40
2019-02-10T15:54:19.779Z,4.92
2019-02-10T15:56:56.533Z,4.12
2019-02-10T15:59:31.852Z,6.30
2019-02-10T16:02:23.880Z,2.80
2019-02-10T16:04:57.990Z,5.83
2019-02-10T16:07:35.754Z,3.62
2019-02-10T16:10:17.032Z,4.10
2019-02-10T16:12:50.362Z,3.95
2019-02-10T16:15:35.090Z,2.75
2019-02-10T16:18:08.587Z,5.10
2019-02-10T16:20:44.778Z,3.80
2019-02-10T16:23:20.089Z,3.92
2019-02-10T16:25:57.686Z,3.55
2019-02-10T16:28:29.914Z,3.12
2019-02-10T16:31:03.819Z,4.28
2019-02-10T16:33:55.009Z,1.47
2019-02-10T16:36:32.927Z,3.17
2019-02-10T16:39:07.762Z,1.65
2019-02-10T16:41:41.664Z,3.80
2019-02-10T16:44:13.527Z,2.42
2019-02-10T16:46:49.613Z,3.62
2019-02-10T16:49:25.851Z,2.10
2019-02-10T16:52:00.683Z,3.30
2019-02-10T16:54:44.902Z,1.95
2019-02-10T16:57:39.469Z,5.72
2019-02-10T17:00:13.436Z,6.63
2019-02-10T17:05:39.888Z,4.20
2019-02-10T17:08:28.007Z,4.47
2019-02-10T17:11:14.095Z,3.97
2019-02-10T17:13:42.979Z,2.25
2019-02-10T17:16:16.756Z,3.65
2019-02-10T17:18:49.486Z,3.17
2019-02-10T17:21:28.764Z,4.40
2019-02-10T17:24:24.420Z,4.17
2019-02-10T17:26:57.715Z,3.37
2019-02-10T17:29:31.081Z,2.75
2019-02-10T17:32:05.210Z,6.40
2019-02-10T17:34:38.675Z,4.60
2019-02-10T17:37:12.165Z,4.17
2019-02-10T17:39:46.665Z,3.60
2019-02-10T17:42:20.760Z,4.47
2019-02-10T17:44:54.431Z,3.23
2019-02-10T17:47:41.126Z,2.23
2019-02-10T17:50:16.474Z,2.60
2019-02-10T17:53:09.500Z,2.83
2019-02-10T18:04:55.397Z,2.12
2019-02-10T18:07:32.934Z,2.12
2019-02-10T18:10:10.024Z,3.80
2019-02-10T18:12:43.621Z,2.70
2019-02-10T18:15:42.439Z,4.17
2019-02-10T18:18:43.224Z,3.77
2019-02-10T18:21:42.509Z,4.63
2019-02-10T18:24:59.870Z,3.50
2019-02-10T18:27:51.774Z,2.70
2019-02-10T18:30:44.933Z,6.60
2019-02-10T18:33:34.997Z,3.70
2019-02-10T18:36:44.930Z,4.03
2019-02-10T18:39:35.488Z,2.60
2019-02-10T18:42:37.636Z,2.00
2019-02-10T18:45:39.393Z,2.58
2019-02-10T18:48:31.230Z,1.40
2019-02-10T18:51:28.855Z,1.87
2019-02-10T18:54:31.319Z,2.08
2019-02-10T18:57:24.835Z,1.10
2019-02-10T19:00:37.946Z,1.40
2019-02-10T19:03:30.392Z,0.83
2019-02-10T19:06:25.803Z,1.27
2019-02-10T19:09:20.684Z,1.23
2019-02-10T19:12:12.295Z,1.87
2019-02-10T19:15:09.901Z,1.57
2019-02-10T19:18:05.785Z,1.53
2019-02-10T19:21:16.986Z,1.30
2019-02-10T19:24:03.434Z,1.37
2019-02-10T19:26:58.935Z,1.03
2019-02-10T19:29:57.201Z,1.40
2019-02-10T19:32:59.054Z,1.00
2019-02-10T19:35:58.199Z,0.50
2019-02-10T19:39:00.519Z,0.70
2019-02-10T19:41:55.920Z,0.50
2019-02-10T19:44:56.667Z,1.17
2019-02-10T19:47:48.478Z,0.70
2019-02-10T19:50:42.763Z,0.70
2019-02-10T19:53:27.378Z,0.90
2019-02-10T19:56:45.020Z,1.13
2019-02-10T20:00:14.066Z,0.90
2019-02-10T20:03:24.502Z,1.23
2019-02-10T20:06:11.387Z,1.17
2019-02-10T20:09:07.052Z,0.97
2019-02-10T20:12:08.408Z,0.40
2019-02-10T20:14:57.931Z,0.50
2019-02-10T20:17:55.621Z,1.10
2019-02-10T20:23:58.522Z,1.43
2019-02-10T20:26:45.965Z,1.17
2019-02-10T20:29:37.994Z,1.20
2019-02-10T20:32:46.084Z,0.87
2019-02-10T20:35:36.446Z,1.00
2019-02-10T20:38:45.412Z,0.53
2019-02-10T20:41:40.937Z,1.00
2019-02-10T20:44:48.004Z,0.50
2019-02-10T20:47:56.765Z,0.70
2019-02-10T20:50:46.404Z,1.33
2019-02-10T20:53:47.915Z,0.57
2019-02-10T20:56:36.975Z,0.67
2019-02-10T20:59:40.578Z,0.60
2019-02-10T21:02:26.833Z,0.80
2019-02-10T21:05:27.361Z,1.10
2019-02-10T21:08:18.925Z,0.93
2019-02-10T21:11:21.436Z,0.73
2019-02-10T21:14:17.595Z,1.53
2019-02-10T21:17:12.494Z,1.70
2019-02-10T21:20:02.913Z,1.77
2019-02-10T21:22:48.214Z,1.17
2019-02-10T21:25:52.730Z,1.33
2019-02-10T21:28:36.699Z,1.40
2019-02-10T21:31:27.994Z,1.27
2019-02-10T21:34:19.043Z,1.37
2019-02-10T21:37:18.243Z,1.67
2019-02-10T21:40:32.035Z,2.40
2019-02-10T21:43:26.626Z,2.27
2019-02-10T21:46:06.414Z,2.57
2019-02-10T21:48:59.964Z,2.40
2019-02-10T21:51:35.193Z,3.92
2019-02-10T21:54:14.265Z,4.00
2019-02-10T21:56:48.370Z,3.70
2019-02-10T22:03:18.156Z,3.08
2019-02-10T22:08:58.592Z,3.20
2019-02-10T22:11:36.158Z,3.07
2019-02-10T22:14:51.877Z,3.87
2019-02-10T22:24:50.821Z,5.73
2019-02-10T22:31:19.495Z,4.97
2019-02-10T22:41:39.930Z,4.25
2019-02-10T22:45:37.025Z,4.90
2019-02-10T23:02:31.572Z,3.05
2019-02-10T23:05:08.470Z,3.47
2019-02-10T23:07:44.987Z,2.98
2019-02-10T23:10:23.802Z,2.98
2019-02-10T23:12:57.174Z,2.12
2019-02-10T23:15:34.672Z,3.40
2019-02-10T23:18:08.894Z,3.43
2019-02-10T23:20:41.388Z,3.37
2019-02-10T23:23:14.219Z,1.93
2019-02-10T23:29:09.589Z,3.10
2019-02-10T23:31:43.716Z,2.77
2019-02-10T23:34:17.800Z,1.73
2019-02-10T23:36:52.584Z,2.02
2019-02-10T23:39:28.283Z,1.67
2019-02-10T23:42:01.961Z,2.10
2019-02-10T23:44:36.996Z,1.25
2019-02-10T23:48:51.050Z,2.10
2019-02-10T23:51:25.520Z,2.37
2019-02-10T23:53:58.316Z,1.33
2019-02-10T23:56:53.965Z,2.50
2019-02-10T23:59:28.405Z,2.90
